createdAt,value
2018-11-29T00:00:05.736Z,10.37
2018-11-29T00:00:44.823Z,9.37
2018-11-29T00:01:22.493Z,10.37
2018-11-29T00:02:00.237Z,8.93
2018-11-29T00:02:37.947Z,10.07
2018-11-29T00:03:15.864Z,9.33
2018-11-29T00:03:53.800Z,8.00
2018-11-29T00:04:31.702Z,8.97
2018-11-29T00:05:10.159Z,9.80
2018-11-29T00:05:48.041Z,9.43
2018-11-29T00:06:25.776Z,9.37
2018-11-29T00:07:03.709Z,9.90
2018-11-29T00:07:41.474Z,8.50
2018-11-29T00:08:21.861Z,9.50
2018-11-29T00:08:59.715Z,9.73
2018-11-29T00:09:40.434Z,9.40
2018-11-29T00:10:18.308Z,8.90
2018-11-29T00:10:56.232Z,9.23
2018-11-29T00:11:34.080Z,7.90
2018-11-29T00:12:12.244Z,9.30
2018-11-29T00:12:50.054Z,9.00
2018-11-29T00:13:27.752Z,8.27
2018-11-29T00:14:05.389Z,8.60
2018-11-29T00:14:43.119Z,9.50
2018-11-29T00:15:21.149Z,9.27
2018-11-29T00:15:59.043Z,8.03
2018-11-29T00:16:36.823Z,9.20
2018-11-29T00:17:14.627Z,9.10
2018-11-29T00:17:53.113Z,8.80
2018-11-29T00:18:30.860Z,11.00
2018-11-29T00:19:08.736Z,8.90
2018-11-29T00:19:46.577Z,7.87
2018-11-29T00:20:24.723Z,8.97
2018-11-29T00:21:02.448Z,9.43
2018-11-29T00:21:40.245Z,9.17
2018-11-29T00:22:17.991Z,8.70
2018-11-29T00:22:56.134Z,7.93
2018-11-29T00:23:33.950Z,8.90
2018-11-29T00:24:11.736Z,9.13
2018-11-29T00:24:49.576Z,8.97
2018-11-29T00:25:27.499Z,9.33
2018-11-29T00:26:05.650Z,8.90
2018-11-29T00:26:43.344Z,9.40
2018-11-29T00:27:21.157Z,8.60
2018-11-29T00:27:58.960Z,8.20
2018-11-29T00:28:36.655Z,8.60
2018-11-29T00:29:14.564Z,8.30
2018-11-29T00:29:52.367Z,9.07
2018-11-29T00:30:30.183Z,7.90
2018-11-29T00:31:08.030Z,7.93
2018-11-29T00:32:04.255Z,7.87
2018-11-29T00:33:00.295Z,8.80
2018-11-29T00:33:38.098Z,8.20
2018-11-29T00:34:15.864Z,8.20
2018-11-29T00:34:53.663Z,8.50
2018-11-29T00:35:31.420Z,8.33
2018-11-29T00:36:09.163Z,8.43
2018-11-29T00:36:47.062Z,9.00
2018-11-29T00:37:24.833Z,7.80
2018-11-29T00:38:02.510Z,8.77
2018-11-29T00:38:40.214Z,7.70
2018-11-29T00:39:17.901Z,8.00
2018-11-29T00:39:55.536Z,8.70
2018-11-29T00:40:33.274Z,8.90
2018-11-29T00:41:11.083Z,8.17
2018-11-29T00:41:48.948Z,8.70
2018-11-29T00:42:26.719Z,8.63
2018-11-29T00:43:04.397Z,8.23
2018-11-29T00:43:42.227Z,8.80
2018-11-29T00:44:20.425Z,8.63
2018-11-29T00:45:00.961Z,8.23
2018-11-29T00:45:38.881Z,8.47
2018-11-29T00:46:16.740Z,7.73
2018-11-29T00:46:54.456Z,7.93
2018-11-29T00:47:32.314Z,8.20
2018-11-29T00:48:10.388Z,8.70
2018-11-29T00:48:48.170Z,9.10
2018-11-29T00:49:25.869Z,7.87
2018-11-29T00:50:03.835Z,8.00
2018-11-29T00:50:41.528Z,7.97
2018-11-29T00:51:19.284Z,7.40
2018-11-29T00:51:57.001Z,7.83
2018-11-29T00:52:34.828Z,7.53
2018-11-29T00:53:12.573Z,6.80
2018-11-29T00:53:50.346Z,7.50
2018-11-29T00:54:28.045Z,7.60
2018-11-29T00:55:05.801Z,6.87
2018-11-29T00:55:43.644Z,7.60
2018-11-29T00:56:21.284Z,7.00
2018-11-29T00:56:59.088Z,5.80
2018-11-29T00:57:36.857Z,7.47
2018-11-29T00:58:14.664Z,6.37
2018-11-29T00:58:52.428Z,6.50
2018-11-29T00:59:30.303Z,6.37
2018-11-29T01:00:10.525Z,6.17
2018-11-29T01:00:48.345Z,6.13
2018-11-29T01:01:26.192Z,6.00
2018-11-29T01:02:04.011Z,5.90
2018-11-29T01:02:41.705Z,6.43
2018-11-29T01:03:19.542Z,6.77
2018-11-29T01:03:57.318Z,6.33
2018-11-29T01:04:35.091Z,5.50
2018-11-29T01:05:12.954Z,5.90
2018-11-29T01:05:50.675Z,5.93
2018-11-29T01:06:28.552Z,5.87
2018-11-29T01:07:06.379Z,5.50
2018-11-29T01:07:44.237Z,5.10
2018-11-29T01:08:21.943Z,5.53
2018-11-29T01:08:59.805Z,5.70
2018-11-29T01:09:37.622Z,5.30
2018-11-29T01:10:21.302Z,5.50
2018-11-29T01:10:59.089Z,4.63
2018-11-29T01:11:36.931Z,5.20
2018-11-29T01:12:14.671Z,5.43
2018-11-29T01:12:52.726Z,5.10
2018-11-29T01:13:30.746Z,5.23
2018-11-29T01:14:08.641Z,4.93
2018-11-29T01:14:46.410Z,5.80
2018-11-29T01:15:24.843Z,4.73
2018-11-29T01:16:02.741Z,5.03
2018-11-29T01:16:40.639Z,5.00
2018-11-29T01:17:18.407Z,5.07
2018-11-29T01:17:56.149Z,5.20
2018-11-29T01:18:34.048Z,5.13
2018-11-29T01:19:12.057Z,4.80
2018-11-29T01:19:49.733Z,6.07
2018-11-29T01:20:27.712Z,4.90
2018-11-29T01:21:05.831Z,5.10
2018-11-29T01:21:43.608Z,4.53
2018-11-29T01:22:21.396Z,5.30
2018-11-29T01:22:59.174Z,4.90
2018-11-29T01:23:36.973Z,5.07
2018-11-29T01:24:14.938Z,5.40
2018-11-29T01:24:52.675Z,5.50
2018-11-29T01:25:31.002Z,6.00
2018-11-29T01:26:08.871Z,6.00
2018-11-29T01:26:46.632Z,5.70
2018-11-29T01:27:24.407Z,6.00
2018-11-29T01:28:02.351Z,5.60
2018-11-29T01:28:41.062Z,4.60
2018-11-29T01:29:18.753Z,5.57
2018-11-29T01:29:56.626Z,5.00
2018-11-29T01:30:34.513Z,5.30
2018-11-29T01:31:12.320Z,5.50
2018-11-29T01:31:50.264Z,4.87
2018-11-29T01:32:28.105Z,4.70
2018-11-29T01:33:05.954Z,4.97
2018-11-29T01:33:44.283Z,5.27
2018-11-29T01:34:22.123Z,5.30
2018-11-29T01:34:59.918Z,5.50
2018-11-29T01:35:37.884Z,5.47
2018-11-29T01:36:15.872Z,5.10
2018-11-29T01:36:53.668Z,5.27
2018-11-29T01:37:31.449Z,4.63
2018-11-29T01:38:09.307Z,5.40
2018-11-29T01:38:46.965Z,4.53
2018-11-29T01:39:24.714Z,5.60
2018-11-29T01:40:02.549Z,4.70
2018-11-29T01:40:40.268Z,4.73
2018-11-29T01:41:18.018Z,4.90
2018-11-29T01:41:58.094Z,4.97
2018-11-29T01:42:36.847Z,4.93
2018-11-29T01:43:14.551Z,5.47
2018-11-29T01:43:52.334Z,5.17
2018-11-29T01:44:31.176Z,5.77
2018-11-29T01:45:09.180Z,4.97
2018-11-29T01:45:46.948Z,5.70
2018-11-29T01:46:24.847Z,4.73
2018-11-29T01:47:02.796Z,5.37
2018-11-29T01:47:40.636Z,5.27
2018-11-29T01:48:18.299Z,5.13
2018-11-29T01:48:56.939Z,5.10
2018-11-29T01:49:34.942Z,5.67
2018-11-29T01:50:12.893Z,5.80
2018-11-29T01:50:50.812Z,4.50
2018-11-29T01:51:28.532Z,5.00
2018-11-29T01:52:06.407Z,4.90
2018-11-29T01:52:44.286Z,5.23
2018-11-29T01:53:21.978Z,5.10
2018-11-29T01:53:59.770Z,5.40
2018-11-29T01:54:37.545Z,6.17
2018-11-29T01:55:15.487Z,5.33
2018-11-29T01:55:53.272Z,5.50
2018-11-29T01:56:31.070Z,6.17
2018-11-29T01:57:08.875Z,5.80
2018-11-29T01:57:47.116Z,5.10
2018-11-29T01:58:26.625Z,5.20
2018-11-29T01:59:04.301Z,5.67
2018-11-29T01:59:41.981Z,5.63
2018-11-29T02:00:22.783Z,5.80
2018-11-29T02:01:00.748Z,5.77
2018-11-29T02:01:38.497Z,6.30
2018-11-29T02:02:16.537Z,5.73
2018-11-29T02:02:57.816Z,5.43
2018-11-29T02:03:35.477Z,5.50
2018-11-29T02:04:13.391Z,5.77
2018-11-29T02:04:51.288Z,5.47
2018-11-29T02:05:28.988Z,5.30
2018-11-29T02:06:06.765Z,6.07
2018-11-29T02:06:44.539Z,5.50
2018-11-29T02:07:22.371Z,5.60
2018-11-29T02:08:00.100Z,5.43
2018-11-29T02:08:37.992Z,5.17
2018-11-29T02:09:15.656Z,5.43
2018-11-29T02:10:11.696Z,6.33
2018-11-29T02:10:53.336Z,6.03
2018-11-29T02:11:31.394Z,5.50
2018-11-29T02:12:09.179Z,5.40
2018-11-29T02:12:47.027Z,5.43
2018-11-29T02:13:25.108Z,6.30
2018-11-29T02:14:02.864Z,5.70
2018-11-29T02:14:40.711Z,6.07
2018-11-29T02:15:18.570Z,5.80
2018-11-29T02:15:56.529Z,5.97
2018-11-29T02:16:34.328Z,5.40
2018-11-29T02:17:12.197Z,5.50
2018-11-29T02:17:50.012Z,6.60
2018-11-29T02:18:27.846Z,5.97
2018-11-29T02:19:05.658Z,6.20
2018-11-29T02:19:43.338Z,6.33
2018-11-29T02:20:22.036Z,5.20
2018-11-29T02:20:59.686Z,5.30
2018-11-29T02:21:40.490Z,5.43
2018-11-29T02:22:18.437Z,6.07
2018-11-29T02:22:56.084Z,6.00
2018-11-29T02:23:33.977Z,6.40
2018-11-29T02:24:11.885Z,6.13
2018-11-29T02:24:49.656Z,5.90
2018-11-29T02:25:27.627Z,7.03
2018-11-29T02:26:05.504Z,5.80
2018-11-29T02:26:43.500Z,6.80
2018-11-29T02:27:21.188Z,6.07
2018-11-29T02:27:59.165Z,6.80
2018-11-29T02:28:37.672Z,7.17
2018-11-29T02:29:15.702Z,7.07
2018-11-29T02:29:53.748Z,6.63
2018-11-29T02:30:31.494Z,6.03
2018-11-29T02:31:12.292Z,6.80
2018-11-29T02:31:50.197Z,6.80
2018-11-29T02:32:28.058Z,6.70
2018-11-29T02:33:05.751Z,6.53
2018-11-29T02:33:43.464Z,6.20
2018-11-29T02:34:21.373Z,7.00
2018-11-29T02:34:59.263Z,7.10
2018-11-29T02:35:37.094Z,6.87
2018-11-29T02:36:14.818Z,6.83
2018-11-29T02:36:52.588Z,7.13
2018-11-29T02:37:30.292Z,7.00
2018-11-29T02:38:08.310Z,6.33
2018-11-29T02:38:45.983Z,7.47
2018-11-29T02:39:23.649Z,6.30
2018-11-29T02:40:01.314Z,7.07
2018-11-29T02:40:39.011Z,7.27
2018-11-29T02:41:16.930Z,6.77
2018-11-29T02:41:54.835Z,6.60
2018-11-29T02:42:32.656Z,6.40
2018-11-29T02:43:10.845Z,6.40
2018-11-29T02:43:48.560Z,5.80
2018-11-29T02:44:26.383Z,6.70
2018-11-29T02:45:04.167Z,6.00
2018-11-29T02:45:41.955Z,6.10
2018-11-29T02:46:19.630Z,6.43
2018-11-29T02:46:57.325Z,6.30
2018-11-29T02:47:35.253Z,6.77
2018-11-29T02:48:12.991Z,7.20
2018-11-29T02:48:50.717Z,6.20
2018-11-29T02:49:30.796Z,6.33
2018-11-29T02:50:07.675Z,6.47
2018-11-29T02:50:46.139Z,7.20
2018-11-29T02:51:23.797Z,6.80
2018-11-29T02:52:01.594Z,6.00
2018-11-29T02:52:39.486Z,6.83
2018-11-29T02:53:17.578Z,6.07
2018-11-29T02:53:55.312Z,6.77
2018-11-29T02:54:34.356Z,6.17
2018-11-29T02:55:15.754Z,6.37
2018-11-29T02:55:53.768Z,6.70
2018-11-29T02:56:31.613Z,7.50
2018-11-29T02:57:09.527Z,6.50
2018-11-29T02:57:47.268Z,6.53
2018-11-29T02:58:25.161Z,6.07
2018-11-29T02:59:03.054Z,6.83
2018-11-29T02:59:40.860Z,6.20
2018-11-29T03:00:25.504Z,6.13
2018-11-29T03:01:03.407Z,7.17
2018-11-29T03:01:42.422Z,6.77
2018-11-29T03:02:20.221Z,7.67
2018-11-29T03:02:57.932Z,7.10
2018-11-29T03:03:37.354Z,6.33
2018-11-29T03:04:15.086Z,6.40
2018-11-29T03:04:52.941Z,6.27
2018-11-29T03:05:30.766Z,7.03
2018-11-29T03:06:08.681Z,7.40
2018-11-29T03:06:48.766Z,6.77
2018-11-29T03:07:26.737Z,6.80
2018-11-29T03:08:05.979Z,7.10
2018-11-29T03:08:43.831Z,6.70
2018-11-29T03:09:55.049Z,7.00
2018-11-29T03:10:36.211Z,6.37
2018-11-29T03:11:14.107Z,6.70
2018-11-29T03:11:52.018Z,6.83
2018-11-29T03:12:30.042Z,7.10
2018-11-29T03:13:11.941Z,8.17
2018-11-29T03:13:49.665Z,6.83
2018-11-29T03:14:27.777Z,6.50
2018-11-29T03:15:12.524Z,7.17
2018-11-29T03:15:50.404Z,6.33
2018-11-29T03:17:00.488Z,7.23
2018-11-29T03:18:46.634Z,6.30
2018-11-29T03:19:24.582Z,7.00
2018-11-29T03:20:02.567Z,7.40
2018-11-29T03:20:49.977Z,7.77
2018-11-29T03:21:27.853Z,7.10
2018-11-29T03:22:05.748Z,7.50
2018-11-29T03:22:44.257Z,8.50
2018-11-29T03:23:22.066Z,8.33
2018-11-29T03:24:03.791Z,7.57
2018-11-29T03:24:43.800Z,7.40
2018-11-29T03:25:21.679Z,7.60
2018-11-29T03:25:59.507Z,7.50
2018-11-29T03:26:37.303Z,7.70
2018-11-29T03:27:15.166Z,7.97
2018-11-29T03:27:53.047Z,7.77
2018-11-29T03:28:31.012Z,7.83
2018-11-29T03:29:36.908Z,7.87
2018-11-29T03:30:21.190Z,6.80
2018-11-29T03:30:59.136Z,8.60
2018-11-29T03:31:37.592Z,8.80
2018-11-29T03:32:15.433Z,8.77
2018-11-29T03:32:53.934Z,8.30
2018-11-29T03:33:31.861Z,9.63
2018-11-29T03:34:11.002Z,8.70
2018-11-29T03:35:32.416Z,8.63
2018-11-29T03:36:10.241Z,8.70
2018-11-29T03:36:48.185Z,8.50
2018-11-29T03:37:27.965Z,7.47
2018-11-29T03:38:04.684Z,7.90
2018-11-29T03:38:42.517Z,7.83
2018-11-29T03:39:20.357Z,8.10
2018-11-29T03:39:58.411Z,7.50
2018-11-29T03:40:44.141Z,8.60
2018-11-29T03:41:22.008Z,8.13
2018-11-29T03:41:59.962Z,7.03
2018-11-29T03:42:37.842Z,8.27
2018-11-29T03:43:15.832Z,7.73
2018-11-29T03:43:53.744Z,7.50
2018-11-29T03:44:31.660Z,8.10
2018-11-29T03:45:10.669Z,8.43
2018-11-29T03:46:48.904Z,9.23
2018-11-29T03:47:26.892Z,8.97
2018-11-29T03:48:04.778Z,8.37
2018-11-29T03:48:42.679Z,9.40
2018-11-29T03:49:20.637Z,9.13
2018-11-29T03:49:58.488Z,8.10
2018-11-29T03:50:36.400Z,9.00
2018-11-29T03:51:14.171Z,8.77
2018-11-29T03:52:18.884Z,9.13
2018-11-29T03:52:56.701Z,8.13
2018-11-29T03:53:34.592Z,7.90
2018-11-29T03:54:12.404Z,9.03
2018-11-29T03:54:50.365Z,8.70
2018-11-29T03:55:28.393Z,9.07
2018-11-29T03:56:06.431Z,9.50
2018-11-29T03:56:44.186Z,9.03
2018-11-29T04:01:37.300Z,9.73
2018-11-29T04:02:15.201Z,9.60
2018-11-29T04:02:53.192Z,9.83
2018-11-29T04:03:31.060Z,9.23
2018-11-29T04:04:08.991Z,9.30
2018-11-29T04:04:47.016Z,8.77
2018-11-29T04:05:25.894Z,9.33
2018-11-29T04:06:03.891Z,9.33
2018-11-29T04:06:41.725Z,9.67
2018-11-29T04:07:19.650Z,9.33
2018-11-29T04:07:57.593Z,10.13
2018-11-29T04:09:17.830Z,10.10
2018-11-29T04:10:38.541Z,9.20
2018-11-29T04:11:16.648Z,10.40
2018-11-29T04:11:54.622Z,9.40
2018-11-29T04:12:32.626Z,9.80
2018-11-29T04:13:10.802Z,9.60
2018-11-29T04:13:48.903Z,10.20
2018-11-29T04:14:26.988Z,10.50
2018-11-29T04:15:05.127Z,10.80
2018-11-29T04:15:43.254Z,12.77
2018-11-29T04:16:21.272Z,10.97
2018-11-29T04:16:59.365Z,8.83
2018-11-29T04:17:40.564Z,9.33
2018-11-29T04:18:16.168Z,9.73
2018-11-29T04:18:54.119Z,7.90
2018-11-29T04:19:32.214Z,7.93
2018-11-29T04:20:12.116Z,8.27
2018-11-29T04:20:55.875Z,8.93
2018-11-29T04:21:33.807Z,7.87
2018-11-29T04:22:11.628Z,8.40
2018-11-29T04:22:49.388Z,8.13
2018-11-29T04:23:27.225Z,8.10
2018-11-29T04:24:05.182Z,8.00
2018-11-29T04:24:43.061Z,8.07
2018-11-29T04:25:20.926Z,7.60
2018-11-29T04:25:58.874Z,9.00
2018-11-29T04:26:36.579Z,8.40
2018-11-29T04:27:14.382Z,8.10
2018-11-29T04:27:52.616Z,8.93
2018-11-29T04:28:30.513Z,9.00
2018-11-29T04:29:08.380Z,9.30
2018-11-29T04:29:48.543Z,8.53
2018-11-29T04:30:26.519Z,9.50
2018-11-29T04:31:04.304Z,9.20
2018-11-29T04:31:42.345Z,9.20
2018-11-29T04:32:20.109Z,10.13
2018-11-29T04:32:57.971Z,9.60
2018-11-29T04:33:35.672Z,9.10
2018-11-29T04:34:13.571Z,9.73
2018-11-29T04:34:51.407Z,8.93
2018-11-29T04:35:29.125Z,7.33
2018-11-29T04:36:06.739Z,8.60
2018-11-29T04:36:44.708Z,8.13
2018-11-29T04:37:22.737Z,8.27
2018-11-29T04:38:00.685Z,8.77
2018-11-29T04:38:38.499Z,7.90
2018-11-29T04:39:16.504Z,8.63
2018-11-29T04:39:54.213Z,8.87
2018-11-29T04:40:32.012Z,8.70
2018-11-29T04:41:09.999Z,7.83
2018-11-29T04:41:47.792Z,8.00
2018-11-29T04:42:25.666Z,8.23
2018-11-29T04:43:04.217Z,7.73
2018-11-29T04:43:42.398Z,7.60
2018-11-29T04:44:20.575Z,7.57
2018-11-29T04:44:58.565Z,8.87
2018-11-29T04:46:09.484Z,7.90
2018-11-29T04:46:56.568Z,9.20
2018-11-29T04:47:34.283Z,9.10
2018-11-29T04:48:12.212Z,9.50
2018-11-29T04:48:50.068Z,8.23
2018-11-29T04:49:27.939Z,8.23
2018-11-29T04:50:05.815Z,8.57
2018-11-29T04:50:43.734Z,8.17
2018-11-29T04:51:21.498Z,7.90
2018-11-29T04:51:59.455Z,8.80
2018-11-29T04:52:37.259Z,9.00
2018-11-29T04:53:17.795Z,8.47
2018-11-29T04:53:55.656Z,8.10
2018-11-29T04:54:33.702Z,8.33
2018-11-29T04:55:12.357Z,8.97
2018-11-29T04:55:50.227Z,8.67
2018-11-29T04:56:27.967Z,8.90
2018-11-29T04:57:05.714Z,8.67
2018-11-29T04:57:44.036Z,8.97
2018-11-29T04:58:22.635Z,8.50
2018-11-29T04:59:00.505Z,8.33
2018-11-29T04:59:38.367Z,7.97
2018-11-29T05:00:22.331Z,7.10
2018-11-29T05:01:00.146Z,8.17
2018-11-29T05:01:38.283Z,7.90
2018-11-29T05:02:16.217Z,8.90
2018-11-29T05:02:53.936Z,9.50
2018-11-29T05:03:31.914Z,8.60
2018-11-29T05:04:10.161Z,7.93
2018-11-29T05:04:48.072Z,7.87
2018-11-29T05:05:26.045Z,8.10
2018-11-29T05:06:04.120Z,8.73
2018-11-29T05:06:45.001Z,7.97
2018-11-29T05:07:22.842Z,8.23
2018-11-29T05:08:00.657Z,8.57
2018-11-29T05:08:38.417Z,8.23
2018-11-29T05:09:16.177Z,7.37
2018-11-29T05:09:54.106Z,8.27
2018-11-29T05:10:31.892Z,7.40
2018-11-29T05:11:10.074Z,8.57
2018-11-29T05:11:47.891Z,8.10
2018-11-29T05:12:25.681Z,7.40
2018-11-29T05:13:03.679Z,7.53
2018-11-29T05:13:41.526Z,7.67
2018-11-29T05:14:19.559Z,7.80
2018-11-29T05:14:57.535Z,8.47
2018-11-29T05:15:35.602Z,8.10
2018-11-29T05:16:13.328Z,7.63
2018-11-29T05:16:51.252Z,7.13
2018-11-29T05:17:29.157Z,7.57
2018-11-29T05:18:07.270Z,8.30
2018-11-29T05:18:45.089Z,7.23
2018-11-29T05:19:22.671Z,7.13
2018-11-29T05:20:00.470Z,7.50
2018-11-29T05:20:38.380Z,7.63
2018-11-29T05:21:16.246Z,7.43
2018-11-29T05:21:54.182Z,7.13
2018-11-29T05:22:31.915Z,7.73
2018-11-29T05:23:09.718Z,7.40
2018-11-29T05:23:47.426Z,7.23
2018-11-29T05:24:25.367Z,7.07
2018-11-29T05:25:03.236Z,6.43
2018-11-29T05:25:40.976Z,6.93
2018-11-29T05:26:18.705Z,7.70
2018-11-29T05:26:56.518Z,6.77
2018-11-29T05:27:34.253Z,5.50
2018-11-29T05:28:12.127Z,6.07
2018-11-29T05:28:49.807Z,5.90
2018-11-29T05:29:27.639Z,5.60
2018-11-29T05:30:05.454Z,5.90
2018-11-29T05:30:43.180Z,6.00
2018-11-29T05:31:21.023Z,6.60
2018-11-29T05:31:58.856Z,5.90
2018-11-29T05:32:36.681Z,6.67
2018-11-29T05:33:14.640Z,6.63
2018-11-29T05:33:52.403Z,6.67
2018-11-29T05:34:30.074Z,5.83
2018-11-29T05:35:08.812Z,6.30
2018-11-29T05:35:46.452Z,6.10
2018-11-29T05:36:24.116Z,6.20
2018-11-29T05:37:01.976Z,5.60
2018-11-29T05:37:39.834Z,6.20
2018-11-29T05:38:17.661Z,6.60
2018-11-29T05:38:55.295Z,5.90
2018-11-29T05:39:32.993Z,5.03
2018-11-29T05:40:15.628Z,5.90
2018-11-29T05:40:53.446Z,5.13
2018-11-29T05:41:31.207Z,5.80
2018-11-29T05:42:09.123Z,4.93
2018-11-29T05:42:47.046Z,4.83
2018-11-29T05:43:24.783Z,5.20
2018-11-29T05:44:02.496Z,6.00
2018-11-29T05:44:40.357Z,5.50
2018-11-29T05:45:18.266Z,5.47
2018-11-29T05:45:55.993Z,6.30
2018-11-29T05:46:33.872Z,6.70
2018-11-29T05:47:11.649Z,6.03
2018-11-29T05:47:49.409Z,5.87
2018-11-29T05:48:27.248Z,5.90
2018-11-29T05:49:05.065Z,5.00
2018-11-29T05:49:42.929Z,6.50
2018-11-29T05:50:20.821Z,5.47
2018-11-29T05:50:58.762Z,5.43
2018-11-29T05:51:36.696Z,6.37
2018-11-29T05:52:14.445Z,5.20
2018-11-29T05:52:52.331Z,6.63
2018-11-29T05:53:30.152Z,6.13
2018-11-29T05:54:08.244Z,7.00
2018-11-29T05:54:46.161Z,5.50
2018-11-29T05:55:24.067Z,6.50
2018-11-29T05:56:01.773Z,6.07
2018-11-29T05:56:39.702Z,5.57
2018-11-29T05:57:17.413Z,6.00
2018-11-29T05:57:55.115Z,5.50
2018-11-29T05:58:33.134Z,5.40
2018-11-29T05:59:11.268Z,5.70
2018-11-29T05:59:49.042Z,5.00
2018-11-29T06:00:27.143Z,5.40
2018-11-29T06:01:10.397Z,5.03
2018-11-29T06:01:49.051Z,4.80
2018-11-29T06:02:26.738Z,4.97
2018-11-29T06:03:04.600Z,4.37
2018-11-29T06:03:42.381Z,4.63
2018-11-29T06:04:20.136Z,4.37
2018-11-29T06:04:58.107Z,4.30
2018-11-29T06:05:35.890Z,4.50
2018-11-29T06:06:13.651Z,3.73
2018-11-29T06:06:51.324Z,3.30
2018-11-29T06:07:29.110Z,3.70
2018-11-29T06:08:06.900Z,3.83
2018-11-29T06:08:44.602Z,3.20
2018-11-29T06:09:22.234Z,3.43
2018-11-29T06:10:00.196Z,4.00
2018-11-29T06:10:38.044Z,3.23
2018-11-29T06:11:15.874Z,3.80
2018-11-29T06:11:53.795Z,3.47
2018-11-29T06:12:31.541Z,3.83
2018-11-29T06:13:09.479Z,4.13
2018-11-29T06:13:47.448Z,3.93
2018-11-29T06:14:25.381Z,4.43
2018-11-29T06:15:03.311Z,3.63
2018-11-29T06:15:41.162Z,4.10
2018-11-29T06:16:18.935Z,3.53
2018-11-29T06:16:56.780Z,5.00
2018-11-29T06:17:34.650Z,4.40
2018-11-29T06:18:12.566Z,5.87
2018-11-29T06:18:50.464Z,7.93
2018-11-29T06:19:28.429Z,7.00
2018-11-29T06:20:06.528Z,7.57
2018-11-29T06:20:44.297Z,7.30
2018-11-29T06:21:22.199Z,8.40
2018-11-29T06:22:00.143Z,8.53
2018-11-29T06:22:37.953Z,9.30
2018-11-29T06:23:15.629Z,8.60
2018-11-29T06:23:53.469Z,9.50
2018-11-29T06:24:31.208Z,9.70
2018-11-29T06:25:09.002Z,8.43
2018-11-29T06:25:46.821Z,8.73
2018-11-29T06:26:24.755Z,8.30
2018-11-29T06:27:02.558Z,8.80
2018-11-29T06:27:40.365Z,7.93
2018-11-29T06:28:18.215Z,8.40
2018-11-29T06:28:56.098Z,8.13
2018-11-29T06:29:34.008Z,9.40
2018-11-29T06:30:19.174Z,8.63
2018-11-29T06:30:56.942Z,9.40
2018-11-29T06:31:34.825Z,9.30
2018-11-29T06:32:12.553Z,9.10
2018-11-29T06:32:50.795Z,8.17
2018-11-29T06:33:28.701Z,9.90
2018-11-29T06:34:06.579Z,9.50
2018-11-29T06:34:44.499Z,9.47
2018-11-29T06:35:22.423Z,10.00
2018-11-29T06:36:02.135Z,9.90
2018-11-29T06:36:38.753Z,9.33
2018-11-29T06:37:16.473Z,9.60
2018-11-29T06:37:54.358Z,10.00
2018-11-29T06:38:32.094Z,9.47
2018-11-29T06:39:11.939Z,10.20
2018-11-29T06:39:49.644Z,10.10
2018-11-29T06:40:27.205Z,10.73
2018-11-29T06:41:05.183Z,9.50
2018-11-29T06:41:42.770Z,10.30
2018-11-29T06:42:20.489Z,10.20
2018-11-29T06:42:58.322Z,9.20
2018-11-29T06:43:36.062Z,9.93
2018-11-29T06:44:13.886Z,9.90
2018-11-29T06:44:51.806Z,10.13
2018-11-29T06:45:29.701Z,9.53
2018-11-29T06:46:07.866Z,9.43
2018-11-29T06:46:45.615Z,8.60
2018-11-29T06:47:23.450Z,8.67
2018-11-29T06:48:01.136Z,9.53
2018-11-29T06:48:38.897Z,9.70
2018-11-29T06:49:16.506Z,10.13
2018-11-29T06:49:54.281Z,10.20
2018-11-29T06:50:32.131Z,11.33
2018-11-29T06:51:10.076Z,10.97
2018-11-29T06:51:47.848Z,10.20
2018-11-29T06:52:25.551Z,10.07
2018-11-29T06:53:04.142Z,10.83
2018-11-29T06:54:01.181Z,10.50
2018-11-29T06:54:39.058Z,9.27
2018-11-29T06:55:23.714Z,10.20
2018-11-29T06:56:01.421Z,10.50
2018-11-29T06:56:39.240Z,10.33
2018-11-29T06:57:17.022Z,9.77
2018-11-29T06:57:55.257Z,10.30
2018-11-29T06:58:33.250Z,9.17
2018-11-29T06:59:10.973Z,9.53
2018-11-29T06:59:48.677Z,9.10
2018-11-29T07:00:35.668Z,9.23
2018-11-29T07:01:13.574Z,8.57
2018-11-29T07:01:51.395Z,8.90
2018-11-29T07:02:29.080Z,8.77
2018-11-29T07:03:06.902Z,9.50
2018-11-29T07:03:44.898Z,9.00
2018-11-29T07:04:22.825Z,9.10
2018-11-29T07:05:00.567Z,8.00
2018-11-29T07:05:38.339Z,8.10
2018-11-29T07:06:16.308Z,8.40
2018-11-29T07:06:54.099Z,7.97
2018-11-29T07:07:31.782Z,7.13
2018-11-29T07:08:09.103Z,7.30
2018-11-29T07:08:46.988Z,6.87
2018-11-29T07:09:24.702Z,7.57
2018-11-29T07:10:02.447Z,8.30
2018-11-29T07:10:40.334Z,8.27
2018-11-29T07:11:18.276Z,7.10
2018-11-29T07:11:56.078Z,7.47
2018-11-29T07:12:33.911Z,7.60
2018-11-29T07:13:12.099Z,7.63
2018-11-29T07:13:49.992Z,6.97
2018-11-29T07:14:27.733Z,7.53
2018-11-29T07:15:05.658Z,6.47
2018-11-29T07:15:43.686Z,7.37
2018-11-29T07:16:21.540Z,7.50
2018-11-29T07:16:59.326Z,6.93
2018-11-29T07:17:37.081Z,7.60
2018-11-29T07:18:14.876Z,7.77
2018-11-29T07:18:52.563Z,7.30
2018-11-29T07:19:30.264Z,8.00
2018-11-29T07:20:11.975Z,7.90
2018-11-29T07:21:24.429Z,7.17
2018-11-29T07:22:02.215Z,7.47
2018-11-29T07:22:40.111Z,7.40
2018-11-29T07:23:17.917Z,6.13
2018-11-29T07:23:55.648Z,6.30
2018-11-29T07:24:33.274Z,6.30
2018-11-29T07:25:12.089Z,6.03
2018-11-29T07:25:49.933Z,5.17
2018-11-29T07:26:27.834Z,5.20
2018-11-29T07:27:05.559Z,5.10
2018-11-29T07:27:43.679Z,5.47
2018-11-29T07:28:21.460Z,4.83
2018-11-29T07:28:59.328Z,5.10
2018-11-29T07:29:37.204Z,5.57
2018-11-29T07:30:33.269Z,5.63
2018-11-29T07:31:11.319Z,5.07
2018-11-29T07:31:49.309Z,5.40
2018-11-29T07:32:27.970Z,5.70
2018-11-29T07:33:05.684Z,5.20
2018-11-29T07:33:43.395Z,5.03
2018-11-29T07:34:21.308Z,6.70
2018-11-29T07:34:59.063Z,6.50
2018-11-29T07:35:36.740Z,7.03
2018-11-29T07:36:17.506Z,6.33
2018-11-29T07:36:55.342Z,6.37
2018-11-29T07:37:33.059Z,6.23
2018-11-29T07:38:11.005Z,6.50
2018-11-29T07:38:48.779Z,7.57
2018-11-29T07:39:26.705Z,7.23
2018-11-29T07:40:04.508Z,6.20
2018-11-29T07:40:42.424Z,6.80
2018-11-29T07:41:20.175Z,7.50
2018-11-29T07:41:58.060Z,6.90
2018-11-29T07:42:35.879Z,6.77
2018-11-29T07:43:13.746Z,6.97
2018-11-29T07:43:51.628Z,6.93
2018-11-29T07:44:29.516Z,7.57
2018-11-29T07:45:09.338Z,7.20
2018-11-29T07:45:47.089Z,7.10
2018-11-29T07:46:24.961Z,6.50
2018-11-29T07:47:03.521Z,7.50
2018-11-29T07:47:41.269Z,7.27
2018-11-29T07:48:19.683Z,6.63
2018-11-29T07:48:57.376Z,6.70
2018-11-29T07:49:34.945Z,7.10
2018-11-29T07:50:14.563Z,7.90
2018-11-29T07:50:52.355Z,7.10
2018-11-29T07:51:30.098Z,7.20
2018-11-29T07:52:07.975Z,7.30
2018-11-29T07:52:45.774Z,6.67
2018-11-29T07:53:23.498Z,7.20
2018-11-29T07:54:01.181Z,7.07
2018-11-29T07:54:38.958Z,6.53
2018-11-29T07:55:17.878Z,7.50
2018-11-29T07:55:55.853Z,7.67
2018-11-29T07:56:33.679Z,8.27
2018-11-29T07:57:11.412Z,7.63
2018-11-29T07:57:49.849Z,7.40
2018-11-29T07:58:27.707Z,7.87
2018-11-29T07:59:05.672Z,8.30
2018-11-29T07:59:43.454Z,8.07
2018-11-29T08:00:21.430Z,7.83
2018-11-29T08:00:59.137Z,7.03
2018-11-29T08:01:37.043Z,7.23
2018-11-29T08:02:14.774Z,7.67
2018-11-29T08:02:52.736Z,8.43
2018-11-29T08:03:30.424Z,8.33
2018-11-29T08:04:08.466Z,8.37
2018-11-29T08:04:46.203Z,8.70
2018-11-29T08:05:24.087Z,7.40
2018-11-29T08:06:01.981Z,7.90
2018-11-29T08:06:39.824Z,8.30
2018-11-29T08:07:17.849Z,7.83
2018-11-29T08:07:55.730Z,7.70
2018-11-29T08:08:33.609Z,8.00
2018-11-29T08:09:11.878Z,7.20
2018-11-29T08:09:49.633Z,7.73
2018-11-29T08:10:27.296Z,8.27
2018-11-29T08:11:05.274Z,8.50
2018-11-29T08:11:43.181Z,7.67
2018-11-29T08:12:21.417Z,7.17
2018-11-29T08:12:59.220Z,7.70
2018-11-29T08:13:37.081Z,7.50
2018-11-29T08:14:15.022Z,8.10
2018-11-29T08:14:52.928Z,7.13
2018-11-29T08:15:30.811Z,7.10
2018-11-29T08:16:08.986Z,6.80
2018-11-29T08:16:46.788Z,8.03
2018-11-29T08:17:24.739Z,6.50
2018-11-29T08:18:02.592Z,7.57
2018-11-29T08:18:40.397Z,7.20
2018-11-29T08:19:18.232Z,8.20
2018-11-29T08:19:55.950Z,7.00
2018-11-29T08:20:33.748Z,8.20
2018-11-29T08:21:11.495Z,7.60
2018-11-29T08:21:49.333Z,8.70
2018-11-29T08:22:27.107Z,7.43
2018-11-29T08:23:04.874Z,7.43
2018-11-29T08:23:42.760Z,8.10
2018-11-29T08:24:20.551Z,8.00
2018-11-29T08:24:58.643Z,7.33
2018-11-29T08:25:36.775Z,7.90
2018-11-29T08:26:14.499Z,7.23
2018-11-29T08:26:52.336Z,8.50
2018-11-29T08:27:30.331Z,9.07
2018-11-29T08:28:08.247Z,7.90
2018-11-29T08:28:46.177Z,7.70
2018-11-29T08:29:23.932Z,7.93
2018-11-29T08:30:01.672Z,9.10
2018-11-29T08:30:39.882Z,7.80
2018-11-29T08:31:17.862Z,8.13
2018-11-29T08:31:56.182Z,7.77
2018-11-29T08:32:34.186Z,9.10
2018-11-29T08:33:11.885Z,9.17
2018-11-29T08:33:50.225Z,8.03
2018-11-29T08:34:28.183Z,8.37
2018-11-29T08:35:05.857Z,8.80
2018-11-29T08:35:43.744Z,8.73
2018-11-29T08:36:21.494Z,9.07
2018-11-29T08:36:59.250Z,8.67
2018-11-29T08:37:37.102Z,8.50
2018-11-29T08:38:14.913Z,8.00
2018-11-29T08:38:52.877Z,10.07
2018-11-29T08:39:30.806Z,9.07